createdAt,value
2023-01-02T00:03:17.320Z,91.90
2023-01-02T00:07:34.848Z,91.90
2023-01-02T00:11:52.484Z,92.09
2023-01-02T00:16:10.211Z,91.99
2023-01-02T00:20:27.564Z,92.10
2023-01-02T00:24:45.239Z,92.29
2023-01-02T00:29:03.259Z,92.08
2023-01-02T00:33:21.154Z,91.74
2023-01-02T00:37:38.586Z,92.35
2023-01-02T00:41:56.379Z,91.88
2023-01-02T00:46:14.111Z,91.67
2023-01-02T00:50:31.835Z,91.90
2023-01-02T00:54:49.343Z,91.71
2023-01-02T00:59:07.059Z,91.63
2023-01-02T01:03:24.201Z,91.82
2023-01-02T01:07:41.961Z,91.66
2023-01-02T01:12:02.291Z,91.85
2023-01-02T01:16:22.792Z,91.96
2023-01-02T01:20:40.561Z,92.05
2023-01-02T01:24:59.495Z,91.72
2023-01-02T01:29:17.198Z,92.07
2023-01-02T01:33:35.123Z,92.18
2023-01-02T01:37:52.826Z,91.85
2023-01-02T01:42:14.108Z,92.23
2023-01-02T01:46:42.178Z,92.01
2023-01-02T01:50:59.349Z,91.62
2023-01-02T01:55:22.662Z,91.72
2023-01-02T01:59:40.728Z,91.58
2023-01-02T02:03:58.468Z,91.82
2023-01-02T02:08:25.126Z,92.27
2023-01-02T02:12:43.073Z,92.07
2023-01-02T02:17:32.962Z,91.79
2023-01-02T02:22:18.972Z,92.02
2023-01-02T02:27:03.332Z,92.25
2023-01-02T02:31:46.079Z,92.37
2023-01-02T02:36:18.099Z,92.21
2023-01-02T02:40:55.605Z,91.88
2023-01-02T02:45:44.931Z,92.12
2023-01-02T02:50:34.213Z,91.97
2023-01-02T02:54:54.440Z,92.07
2023-01-02T02:59:12.550Z,91.73
2023-01-02T03:03:30.282Z,91.81
2023-01-02T03:08:21.186Z,91.86
2023-01-02T03:12:50.982Z,92.03
2023-01-02T03:17:20.996Z,92.61
2023-01-02T03:22:05.290Z,92.20
2023-01-02T03:26:28.899Z,92.41
2023-01-02T03:30:51.665Z,92.70
2023-01-02T03:35:15.581Z,92.49
2023-01-02T03:39:38.998Z,92.16
2023-01-02T03:43:57.516Z,92.37
2023-01-02T03:48:38.211Z,93.26
2023-01-02T03:52:56.204Z,93.29
2023-01-02T03:57:22.583Z,92.91
2023-01-02T04:01:49.557Z,92.67
2023-01-02T04:06:15.867Z,92.76
2023-01-02T04:10:37.262Z,93.37
2023-01-02T04:15:08.623Z,93.31
2023-01-02T04:19:33.785Z,92.96
2023-01-02T04:24:28.639Z,93.17
2023-01-02T04:28:46.258Z,93.15
2023-01-02T04:33:08.362Z,93.19
2023-01-02T04:37:31.984Z,93.38
2023-01-02T04:41:49.427Z,93.33
2023-01-02T04:46:07.004Z,93.30
2023-01-02T04:50:24.818Z,93.42
2023-01-02T04:54:42.293Z,93.06
2023-01-02T04:58:59.654Z,92.84
2023-01-02T05:03:17.208Z,92.77
2023-01-02T05:07:36.132Z,92.62
2023-01-02T05:11:53.618Z,92.41
2023-01-02T05:16:11.488Z,92.34
2023-01-02T05:20:29.196Z,92.47
2023-01-02T05:24:46.863Z,93.03
2023-01-02T05:29:04.283Z,93.25
2023-01-02T05:33:21.793Z,93.10
2023-01-02T05:37:40.925Z,93.11
2023-01-02T05:41:58.382Z,93.26
2023-01-02T05:46:20.922Z,92.73
2023-01-02T05:50:38.760Z,92.68
2023-01-02T05:54:56.218Z,92.83
2023-01-02T05:59:15.266Z,92.45
2023-01-02T06:03:32.885Z,92.50
2023-01-02T06:07:50.417Z,92.05
2023-01-02T06:12:07.932Z,92.28
2023-01-02T06:16:25.706Z,92.28
2023-01-02T06:20:43.033Z,92.44
2023-01-02T06:25:00.610Z,92.75
2023-01-02T06:29:18.265Z,92.44
2023-01-02T06:33:36.309Z,92.21
2023-01-02T06:37:53.467Z,92.07
2023-01-02T06:42:11.225Z,92.42
2023-01-02T06:46:28.825Z,92.39
2023-01-02T06:50:46.671Z,91.89
2023-01-02T06:55:04.615Z,92.43
2023-01-02T06:59:22.237Z,92.36
2023-01-02T07:03:39.940Z,92.05
2023-01-02T07:07:57.641Z,91.77
2023-01-02T07:12:15.150Z,91.64
2023-01-02T07:16:32.807Z,92.37
2023-01-02T07:20:56.336Z,92.66
2023-01-02T07:25:13.598Z,92.14
2023-01-02T07:29:31.086Z,91.73
2023-01-02T07:33:49.425Z,91.35
2023-01-02T07:38:06.804Z,91.34
2023-01-02T07:42:25.584Z,90.82
2023-01-02T07:46:43.143Z,90.61
2023-01-02T07:51:06.132Z,91.57
2023-01-02T07:55:23.336Z,90.58
2023-01-02T07:59:41.321Z,90.48
2023-01-02T08:03:58.897Z,90.24
2023-01-02T08:08:17.328Z,90.74
2023-01-02T08:12:34.564Z,90.85
2023-01-02T08:16:52.420Z,91.85
2023-01-02T08:21:11.103Z,89.18
2023-01-02T08:25:28.265Z,89.93
2023-01-02T08:29:45.829Z,89.35
2023-01-02T08:34:03.890Z,88.96
2023-01-02T08:38:21.520Z,90.12
2023-01-02T08:42:41.112Z,90.47
2023-01-02T08:46:58.884Z,90.06
2023-01-02T08:51:16.594Z,90.20
2023-01-02T08:55:34.352Z,91.15
2023-01-02T08:59:52.291Z,90.08
2023-01-02T09:04:12.790Z,90.08
2023-01-02T09:08:31.849Z,90.72
2023-01-02T09:12:49.297Z,90.35
2023-01-02T09:17:06.978Z,90.77
2023-01-02T09:21:24.611Z,91.38
2023-01-02T09:25:41.930Z,91.19
2023-01-02T09:29:59.439Z,90.85
2023-01-02T09:34:17.207Z,90.80
2023-01-02T09:38:35.108Z,89.75
2023-01-02T09:42:54.232Z,89.36
2023-01-02T09:47:12.106Z,89.84
2023-01-02T09:51:29.655Z,88.54
2023-01-02T09:55:58.513Z,88.53
2023-01-02T10:00:27.096Z,88.75
2023-01-02T10:05:12.490Z,88.70
2023-01-02T10:10:04.345Z,83.75
2023-01-02T10:14:53.918Z,82.16
2023-01-02T10:19:44.345Z,82.32
2023-01-02T10:24:22.244Z,79.63
2023-01-02T10:29:04.389Z,77.76
2023-01-02T10:33:52.320Z,77.04
2023-01-02T10:38:17.184Z,76.10
2023-01-02T10:42:35.022Z,75.51
2023-01-02T10:46:53.522Z,75.59
2023-01-02T10:51:15.324Z,71.64
2023-01-02T10:55:43.955Z,72.45
2023-01-02T11:00:02.389Z,69.59
2023-01-02T11:04:26.021Z,64.74
2023-01-02T11:08:43.516Z,61.60
2023-01-02T11:13:09.976Z,57.64
2023-01-02T11:17:30.199Z,52.95
2023-01-02T11:21:49.507Z,52.36
2023-01-02T11:26:20.562Z,48.57
2023-01-02T11:30:52.143Z,50.08
2023-01-02T11:35:47.029Z,49.68
2023-01-02T11:40:25.208Z,47.97
2023-01-02T11:44:49.912Z,47.64
2023-01-02T11:49:25.027Z,43.44
2023-01-02T11:53:48.295Z,45.86
2023-01-02T11:58:20.066Z,47.11
2023-01-02T12:02:44.621Z,47.18
2023-01-02T12:07:40.484Z,41.94
2023-01-02T12:12:14.506Z,43.96
2023-01-02T12:17:07.435Z,45.00
2023-01-02T12:21:32.615Z,42.55
2023-01-02T12:26:13.710Z,44.64
2023-01-02T12:30:38.539Z,43.27
2023-01-02T12:35:18.538Z,44.30
2023-01-02T12:40:27.750Z,42.38
2023-01-02T12:44:53.860Z,41.01
2023-01-02T12:49:32.958Z,41.97
2023-01-02T12:54:48.380Z,44.34
2023-01-02T12:59:27.270Z,43.83
2023-01-02T13:03:48.190Z,45.44
2023-01-02T13:08:21.380Z,57.25
2023-01-02T13:12:39.341Z,60.82
2023-01-02T13:17:50.605Z,62.66
2023-01-02T13:22:21.035Z,63.31
2023-01-02T13:26:39.245Z,64.91
2023-01-02T13:31:44.163Z,66.07
2023-01-02T13:35:43.262Z,67.01
2023-01-02T13:40:02.656Z,67.69
2023-01-02T13:44:33.396Z,68.53
2023-01-02T13:48:55.066Z,69.14
2023-01-02T13:53:12.657Z,69.82
2023-01-02T13:57:29.702Z,70.47
2023-01-02T14:02:21.328Z,70.92
2023-01-02T14:06:50.053Z,71.53
2023-01-02T14:11:19.811Z,72.33
2023-01-02T14:16:16.657Z,73.73
2023-01-02T14:20:38.669Z,74.73
2023-01-02T14:25:04.208Z,76.51
2023-01-02T14:29:23.944Z,75.95
2023-01-02T14:33:41.618Z,76.72
2023-01-02T14:38:18.869Z,78.32
2023-01-02T14:42:57.172Z,78.65
2023-01-02T14:47:20.162Z,80.47
2023-01-02T14:51:43.054Z,82.76
2023-01-02T14:56:31.759Z,83.14
2023-01-02T15:00:50.171Z,83.55
2023-01-02T15:05:14.036Z,84.62
2023-01-02T15:09:40.438Z,84.62
2023-01-02T15:14:03.640Z,85.38
2023-01-02T15:18:23.241Z,85.73
2023-01-02T15:22:40.705Z,86.11
2023-01-02T15:27:26.939Z,86.59
2023-01-02T15:31:53.271Z,87.34
2023-01-02T15:36:19.707Z,87.68
2023-01-02T15:40:38.272Z,88.81
2023-01-02T15:45:11.458Z,88.07
2023-01-02T15:49:28.998Z,88.08
2023-01-02T15:53:50.176Z,88.45
2023-01-02T15:58:16.649Z,89.13
2023-01-02T16:02:45.003Z,88.87
2023-01-02T16:07:24.522Z,88.64
2023-01-02T16:11:49.913Z,88.97
2023-01-02T16:16:15.494Z,89.10
2023-01-02T16:20:34.164Z,89.83
2023-01-02T16:25:06.224Z,90.11
2023-01-02T16:29:24.528Z,90.46
2023-01-02T16:33:42.699Z,90.05
2023-01-02T16:38:19.808Z,90.19
2023-01-02T16:42:39.159Z,89.24
2023-01-02T16:46:57.465Z,90.10
2023-01-02T16:51:15.763Z,90.10
2023-01-02T16:55:34.447Z,89.91
2023-01-02T16:59:51.984Z,90.07
2023-01-02T17:04:17.465Z,90.45
2023-01-02T17:08:35.011Z,90.44
2023-01-02T17:12:52.571Z,90.92
2023-01-02T17:17:13.385Z,90.47
2023-01-02T17:21:33.062Z,90.90
2023-01-02T17:25:50.999Z,91.33
2023-01-02T17:30:13.155Z,91.58
2023-01-02T17:34:33.762Z,91.22
2023-01-02T17:38:51.258Z,91.67
2023-01-02T17:43:08.589Z,91.33
2023-01-02T17:52:03.965Z,91.54
2023-01-02T17:56:22.975Z,91.86
2023-01-02T18:00:44.326Z,91.74
2023-01-02T18:05:02.518Z,91.68
2023-01-02T18:09:20.234Z,91.42
2023-01-02T18:13:59.064Z,91.59
2023-01-02T18:18:17.313Z,91.59
2023-01-02T18:22:35.096Z,91.80
2023-01-02T18:27:30.184Z,92.26
2023-01-02T18:31:49.075Z,91.71
2023-01-02T18:36:21.079Z,91.99
2023-01-02T18:40:40.060Z,91.98
2023-01-02T18:45:00.280Z,92.52
2023-01-02T18:49:19.318Z,92.46
2023-01-02T18:53:44.319Z,92.49
2023-01-02T18:58:09.616Z,92.34
2023-01-02T19:02:56.337Z,92.08
2023-01-02T19:07:28.027Z,92.46
2023-01-02T19:12:11.622Z,92.43
2023-01-02T19:16:29.335Z,92.45
2023-01-02T19:21:20.786Z,92.35
2023-01-02T19:25:44.894Z,92.33
2023-01-02T19:30:28.115Z,92.63
2023-01-02T19:34:59.635Z,92.73
2023-01-02T19:39:34.384Z,92.94
2023-01-02T19:43:51.752Z,93.06
2023-01-02T19:48:16.314Z,92.77
2023-01-02T19:52:36.116Z,92.64
2023-01-02T19:56:53.312Z,92.52
2023-01-02T20:01:11.027Z,92.91
2023-01-02T20:05:28.899Z,93.06
2023-01-02T20:09:47.014Z,93.09
2023-01-02T20:14:04.644Z,93.02
2023-01-02T20:18:22.185Z,93.06
2023-01-02T20:22:41.820Z,93.12
2023-01-02T20:27:01.506Z,93.40
2023-01-02T20:31:19.508Z,93.58
2023-01-02T20:35:37.405Z,93.71
2023-01-02T20:39:54.919Z,93.83
2023-01-02T20:44:13.882Z,93.77
2023-01-02T20:48:32.962Z,93.64
2023-01-02T20:52:56.415Z,93.46
2023-01-02T20:57:14.800Z,93.79
2023-01-02T21:01:32.433Z,93.91
2023-01-02T21:05:50.291Z,93.94
2023-01-02T21:10:08.247Z,94.05
2023-01-02T21:14:25.944Z,94.17
2023-01-02T21:18:43.624Z,94.06
2023-01-02T21:23:01.975Z,94.17
2023-01-02T21:27:19.298Z,94.14
2023-01-02T21:31:37.442Z,94.16
2023-01-02T21:35:58.836Z,94.34
2023-01-02T21:40:16.508Z,94.33
2023-01-02T21:44:34.203Z,94.35
2023-01-02T21:48:52.902Z,94.34
2023-01-02T21:53:10.777Z,94.21
2023-01-02T21:58:02.817Z,94.26
2023-01-02T22:02:07.053Z,94.33
2023-01-02T22:06:24.260Z,94.36
2023-01-02T22:10:42.243Z,94.29
2023-01-02T22:14:59.744Z,94.24
2023-01-02T22:19:17.186Z,94.18
2023-01-02T22:23:34.715Z,94.26
2023-01-02T22:27:52.399Z,94.13
2023-01-02T22:32:10.253Z,93.82
2023-01-02T22:36:31.529Z,93.47
2023-01-02T22:40:49.656Z,93.57
2023-01-02T22:45:11.505Z,93.73
2023-01-02T22:49:31.144Z,93.58
2023-01-02T22:53:49.025Z,93.80
2023-01-02T22:58:07.006Z,93.94
2023-01-02T23:02:24.567Z,93.88
2023-01-02T23:07:13.729Z,93.93
2023-01-02T23:11:21.564Z,93.94
2023-01-02T23:15:59.842Z,93.86
2023-01-02T23:20:17.601Z,93.94
2023-01-02T23:24:37.103Z,93.89
2023-01-02T23:29:06.725Z,94.00
2023-01-02T23:33:25.111Z,94.21
2023-01-02T23:37:44.203Z,94.48
2023-01-02T23:42:01.902Z,94.70
2023-01-02T23:46:19.433Z,94.86
2023-01-02T23:50:36.788Z,94.99
2023-01-02T23:54:54.331Z,95.09
2023-01-02T23:59:21.729Z,95.09
